createdAt,value
2017-08-01T00:00:31.909Z,24.16
2017-08-01T00:01:12.800Z,24.14
2017-08-01T00:01:53.697Z,24.26
2017-08-01T00:02:34.593Z,24.28
2017-08-01T00:03:15.495Z,24.21
2017-08-01T00:03:56.388Z,24.21
2017-08-01T00:04:37.290Z,24.23
2017-08-01T00:05:18.176Z,24.23
2017-08-01T00:05:59.078Z,24.21
2017-08-01T00:06:39.969Z,24.28
2017-08-01T00:07:20.867Z,24.23
2017-08-01T00:08:01.767Z,24.18
2017-08-01T00:08:42.660Z,24.28
2017-08-01T00:09:23.569Z,24.26
2017-08-01T00:10:04.476Z,24.24
2017-08-01T00:10:45.367Z,24.24
2017-08-01T00:11:26.261Z,24.2
2017-08-01T00:12:07.173Z,24.16
2017-08-01T00:12:48.069Z,24.17
2017-08-01T00:13:28.960Z,24.16
2017-08-01T00:14:09.855Z,24.21
2017-08-01T00:14:50.752Z,24.23
2017-08-01T00:15:31.646Z,24.11
2017-08-01T00:16:12.539Z,24.14
2017-08-01T00:16:53.448Z,24.14
2017-08-01T00:17:34.338Z,24.06
2017-08-01T00:18:15.231Z,24.14
2017-08-01T00:18:56.120Z,24.14
2017-08-01T00:19:37.016Z,24.11
2017-08-01T00:20:17.913Z,24.11
2017-08-01T00:20:58.820Z,24.1
2017-08-01T00:21:39.716Z,24.08
2017-08-01T00:22:20.618Z,24.06
2017-08-01T00:23:01.515Z,24.06
2017-08-01T00:23:42.408Z,24.14
2017-08-01T00:24:23.309Z,24.03
2017-08-01T00:25:04.205Z,24.06
2017-08-01T00:25:45.106Z,24.16
2017-08-01T00:26:26.001Z,24.05
2017-08-01T00:27:06.918Z,24.08
2017-08-01T00:27:47.814Z,24.11
2017-08-01T00:28:28.696Z,24.13
2017-08-01T00:29:09.594Z,24.11
2017-08-01T00:31:04.798Z,24.26
2017-08-01T00:31:45.692Z,24.18
2017-08-01T00:32:26.586Z,24.18
2017-08-01T00:33:07.485Z,24.18
2017-08-01T00:33:48.378Z,24.16
2017-08-01T00:34:29.283Z,24.11
2017-08-01T00:35:10.180Z,24.18
2017-08-01T00:35:51.074Z,24.16
2017-08-01T00:36:31.970Z,24.16
2017-08-01T00:37:12.859Z,24.28
2017-08-01T00:37:53.756Z,24.29
2017-08-01T00:38:34.651Z,24.24
2017-08-01T00:39:15.546Z,24.17
2017-08-01T00:39:56.445Z,24.2
2017-08-01T00:40:37.337Z,24.29
2017-08-01T00:41:18.233Z,24.17
2017-08-01T00:41:59.132Z,24.08
2017-08-01T00:42:40.046Z,24.03
2017-08-01T00:43:20.930Z,24.03
2017-08-01T00:44:01.831Z,24.01
2017-08-01T00:44:42.721Z,24.03
2017-08-01T00:45:23.607Z,23.98
2017-08-01T00:46:04.510Z,24.02
2017-08-01T00:46:45.408Z,23.98
2017-08-01T00:47:26.309Z,23.98
2017-08-01T00:48:07.208Z,24.03
2017-08-01T00:48:48.092Z,24.06
2017-08-01T00:49:28.988Z,24.05
2017-08-01T00:50:09.884Z,24.11
2017-08-01T00:50:50.766Z,24.16
2017-08-01T00:51:31.663Z,24.11
2017-08-01T00:52:12.563Z,24.14
2017-08-01T00:52:53.450Z,24.18
2017-08-01T00:53:35.053Z,24.17
2017-08-01T00:54:15.251Z,24.18
2017-08-01T00:54:56.170Z,24.18
2017-08-01T00:55:37.064Z,24.13
2017-08-01T00:56:17.942Z,24.13
2017-08-01T00:56:58.838Z,24.17
2017-08-01T00:57:39.719Z,24.2
2017-08-01T00:58:20.620Z,24.18
2017-08-01T00:59:01.506Z,24.16
2017-08-01T00:59:42.393Z,24.16
2017-08-01T01:00:23.285Z,24.17
2017-08-01T01:01:04.188Z,24.17
2017-08-01T01:01:45.086Z,24.26
2017-08-01T01:02:25.974Z,24.26
2017-08-01T01:03:06.868Z,24.3
2017-08-01T01:03:47.762Z,24.23
2017-08-01T01:04:28.644Z,24.3
2017-08-01T01:05:09.538Z,24.33
2017-08-01T01:05:50.424Z,24.28
2017-08-01T01:06:31.313Z,24.32
2017-08-01T01:07:12.208Z,24.28
2017-08-01T01:07:53.112Z,24.29
2017-08-01T01:08:34.001Z,24.38
2017-08-01T01:09:14.897Z,24.13
2017-08-01T01:09:55.795Z,24.18
2017-08-01T01:10:36.692Z,24.23
2017-08-01T01:11:17.585Z,24.2
2017-08-01T01:11:58.467Z,24.18
2017-08-01T01:12:39.378Z,24.08
2017-08-01T01:13:20.277Z,24.14
2017-08-01T01:14:01.164Z,23.98
2017-08-01T01:14:42.054Z,24.01
2017-08-01T01:15:22.951Z,23.98
2017-08-01T01:16:03.864Z,23.93
2017-08-01T01:16:44.754Z,23.98
2017-08-01T01:17:25.645Z,23.99
2017-08-01T01:18:06.538Z,24.02
2017-08-01T01:18:47.435Z,23.95
2017-08-01T01:19:28.332Z,24.05
2017-08-01T01:20:09.231Z,24.14
2017-08-01T01:20:50.124Z,24.2
2017-08-01T01:21:31.019Z,24.23
2017-08-01T01:22:11.917Z,24.28
2017-08-01T01:22:52.810Z,24.16
2017-08-01T01:23:33.706Z,24.02
2017-08-01T01:24:14.615Z,23.99
2017-08-01T01:24:55.509Z,23.91
2017-08-01T01:25:36.409Z,23.99
2017-08-01T01:26:17.301Z,24.13
2017-08-01T01:26:58.190Z,24.16
2017-08-01T01:27:39.077Z,24.17
2017-08-01T01:28:19.967Z,24.17
2017-08-01T01:29:00.864Z,24.14
2017-08-01T01:29:41.760Z,24.28
2017-08-01T01:30:22.649Z,24.29
2017-08-01T01:31:03.543Z,24.13
2017-08-01T01:31:44.437Z,24.21
2017-08-01T01:32:25.323Z,24.28
2017-08-01T01:33:06.235Z,24.33
2017-08-01T01:33:47.136Z,24.3
2017-08-01T01:34:28.021Z,24.33
2017-08-01T01:35:08.922Z,24.32
2017-08-01T01:35:49.817Z,24.32
2017-08-01T01:36:30.714Z,24.24
2017-08-01T01:37:11.601Z,24.29
2017-08-01T01:37:52.491Z,24.3
2017-08-01T01:38:33.387Z,24.28
2017-08-01T01:39:14.281Z,24.33
2017-08-01T01:39:55.166Z,24.33
2017-08-01T01:40:36.060Z,24.36
2017-08-01T01:41:16.956Z,24.35
2017-08-01T01:41:57.851Z,24.33
2017-08-01T01:42:38.746Z,24.36
2017-08-01T01:43:19.639Z,24.42
2017-08-01T01:44:00.523Z,24.45
2017-08-01T01:44:41.415Z,24.42
2017-08-01T01:45:22.310Z,24.3
2017-08-01T01:46:03.207Z,24.29
2017-08-01T01:46:44.115Z,24.24
2017-08-01T01:47:25.007Z,24.29
2017-08-01T01:48:05.899Z,24.28
2017-08-01T01:48:46.791Z,24.23
2017-08-01T01:49:27.684Z,24.29
2017-08-01T01:50:08.583Z,24.24
2017-08-01T01:50:49.487Z,24.3
2017-08-01T01:51:30.390Z,24.16
2017-08-01T01:52:11.292Z,24.16
2017-08-01T01:52:52.170Z,24.18
2017-08-01T01:53:33.066Z,24.1
2017-08-01T01:54:13.968Z,24.08
2017-08-01T01:54:54.861Z,23.98
2017-08-01T01:55:35.758Z,24.03
2017-08-01T01:56:16.655Z,24.01
2017-08-01T01:56:57.551Z,24.01
2017-08-01T01:57:38.448Z,24.01
2017-08-01T01:58:19.337Z,23.99
2017-08-01T01:59:00.232Z,24.03
2017-08-01T01:59:41.131Z,23.93
2017-08-01T02:00:22.030Z,23.87
2017-08-01T02:01:02.933Z,23.88
2017-08-01T02:01:43.825Z,23.88
2017-08-01T02:02:24.731Z,23.84
2017-08-01T02:03:05.639Z,23.88
2017-08-01T02:03:46.526Z,23.81
2017-08-01T02:04:27.420Z,23.81
2017-08-01T02:05:08.317Z,23.81
2017-08-01T02:05:49.206Z,23.81
2017-08-01T02:06:30.112Z,23.8
2017-08-01T02:07:11.005Z,23.78
2017-08-01T02:07:51.904Z,23.78
2017-08-01T02:08:32.808Z,23.76
2017-08-01T02:09:13.699Z,23.68
2017-08-01T02:09:54.605Z,23.62
2017-08-01T02:10:35.509Z,23.62
2017-08-01T02:11:16.398Z,23.56
2017-08-01T02:11:57.313Z,23.56
2017-08-01T02:12:38.208Z,23.51
2017-08-01T02:13:19.099Z,23.51
2017-08-01T02:14:00.004Z,23.5
2017-08-01T02:14:40.896Z,23.48
2017-08-01T02:15:21.800Z,23.41
2017-08-01T02:16:02.693Z,23.44
2017-08-01T02:16:43.590Z,23.41
2017-08-01T02:17:24.478Z,23.5
2017-08-01T02:18:05.383Z,23.47
2017-08-01T02:18:46.283Z,23.44
2017-08-01T02:19:27.171Z,23.47
2017-08-01T02:20:08.066Z,23.55
2017-08-01T02:20:48.967Z,23.54
2017-08-01T02:21:29.857Z,23.54
2017-08-01T02:22:10.756Z,23.59
2017-08-01T02:22:51.680Z,23.59
2017-08-01T02:23:32.580Z,23.62
2017-08-01T02:24:13.469Z,23.68
2017-08-01T02:24:54.364Z,23.83
2017-08-01T02:25:35.264Z,23.83
2017-08-01T02:26:16.155Z,23.74
2017-08-01T02:26:57.050Z,23.74
2017-08-01T02:27:37.942Z,23.66
2017-08-01T02:28:18.842Z,23.69
2017-08-01T02:28:59.726Z,23.68
2017-08-01T02:29:40.618Z,23.68
2017-08-01T02:30:21.512Z,23.69
2017-08-01T02:31:02.402Z,23.71
2017-08-01T02:31:43.306Z,23.69
2017-08-01T02:32:24.199Z,23.71
2017-08-01T02:33:05.125Z,23.73
2017-08-01T02:33:46.018Z,23.83
2017-08-01T02:34:26.917Z,23.87
2017-08-01T02:35:07.793Z,23.83
2017-08-01T02:35:48.681Z,23.88
2017-08-01T02:36:29.573Z,23.88
2017-08-01T02:37:10.462Z,23.83
2017-08-01T02:37:51.362Z,23.99
2017-08-01T02:38:32.254Z,23.91
2017-08-01T02:39:13.154Z,23.84
2017-08-01T02:39:54.050Z,23.95
2017-08-01T02:40:34.985Z,23.87
2017-08-01T02:41:15.868Z,23.92
2017-08-01T02:41:56.773Z,23.91
2017-08-01T02:42:37.663Z,23.88
2017-08-01T02:43:18.554Z,23.87
2017-08-01T02:43:59.466Z,23.86
2017-08-01T02:44:40.361Z,23.81
2017-08-01T02:45:21.265Z,23.77
2017-08-01T02:46:02.154Z,23.74
2017-08-01T02:46:43.046Z,23.81
2017-08-01T02:47:23.946Z,23.91
2017-08-01T02:48:04.840Z,23.91
2017-08-01T02:48:45.738Z,23.91
2017-08-01T02:49:26.629Z,23.92
2017-08-01T02:50:07.511Z,24.01
2017-08-01T02:50:48.415Z,24.01
2017-08-01T02:51:29.310Z,23.99
2017-08-01T02:52:10.204Z,24.06
2017-08-01T02:52:51.098Z,24.1
2017-08-01T02:53:32.000Z,24.13
2017-08-01T02:54:12.887Z,24.08
2017-08-01T02:54:53.786Z,24.11
2017-08-01T02:55:34.680Z,24.13
2017-08-01T02:56:15.569Z,24.11
2017-08-01T02:56:56.458Z,24.05
2017-08-01T02:57:37.352Z,24.11
2017-08-01T02:58:18.250Z,24.02
2017-08-01T02:58:59.133Z,24.02
2017-08-01T02:59:40.029Z,24.02
2017-08-01T03:00:20.922Z,24.01
2017-08-01T03:01:01.818Z,24.02
2017-08-01T03:01:42.709Z,23.93
2017-08-01T03:02:23.598Z,23.92
2017-08-01T03:03:04.501Z,23.88
2017-08-01T03:03:45.386Z,23.91
2017-08-01T03:04:26.295Z,23.92
2017-08-01T03:05:07.199Z,23.87
2017-08-01T03:05:48.093Z,23.83
2017-08-01T03:06:28.990Z,23.8
2017-08-01T03:07:09.888Z,23.8
2017-08-01T03:07:50.790Z,23.84
2017-08-01T03:08:31.692Z,23.81
2017-08-01T03:09:12.596Z,23.81
2017-08-01T03:09:53.488Z,23.87
2017-08-01T03:10:34.382Z,23.96
2017-08-01T03:11:15.281Z,23.92
2017-08-01T03:11:56.177Z,23.81
2017-08-01T03:12:37.067Z,23.84
2017-08-01T03:13:17.960Z,23.83
2017-08-01T03:13:58.858Z,23.84
2017-08-01T03:14:39.746Z,23.77
2017-08-01T03:15:20.654Z,23.74
2017-08-01T03:16:01.544Z,23.77
2017-08-01T03:16:42.441Z,23.76
2017-08-01T03:17:23.336Z,23.69
2017-08-01T03:18:04.228Z,23.63
2017-08-01T03:18:45.147Z,23.63
2017-08-01T03:19:26.021Z,23.55
2017-08-01T03:20:06.917Z,23.47
2017-08-01T03:20:47.826Z,23.47
2017-08-01T03:21:28.730Z,23.28
2017-08-01T03:22:09.625Z,23.23
2017-08-01T03:22:50.524Z,23.15
2017-08-01T03:23:31.433Z,23.15
2017-08-01T03:24:12.345Z,23.03
2017-08-01T03:24:53.246Z,23.09
2017-08-01T03:25:34.143Z,23.1
2017-08-01T03:26:15.034Z,23.06
2017-08-01T03:26:55.937Z,23
2017-08-01T03:27:36.835Z,23.15
2017-08-01T03:28:17.726Z,23.1
2017-08-01T03:28:58.631Z,23.2
2017-08-01T03:29:39.520Z,23.18
2017-08-01T03:30:20.458Z,23.28
2017-08-01T03:31:01.355Z,23.23
2017-08-01T03:31:42.251Z,23.31
2017-08-01T03:32:23.145Z,23.44
2017-08-01T03:33:04.032Z,23.44
2017-08-01T03:33:44.925Z,23.4
2017-08-01T03:34:25.823Z,23.43
2017-08-01T03:35:06.705Z,23.37
2017-08-01T03:35:47.600Z,23.37
2017-08-01T03:36:28.486Z,23.36
2017-08-01T03:37:09.382Z,23.36
2017-08-01T03:37:50.274Z,23.43
2017-08-01T03:38:31.169Z,23.37
2017-08-01T03:39:12.059Z,23.31
2017-08-01T03:39:52.972Z,23.18
2017-08-01T03:40:33.861Z,23.25
2017-08-01T03:41:14.794Z,23.15
2017-08-01T03:41:55.674Z,23.18
2017-08-01T03:42:36.564Z,23.12
2017-08-01T03:43:17.486Z,23.13
2017-08-01T03:43:58.377Z,23.31
2017-08-01T03:44:39.266Z,23.25
2017-08-01T03:45:20.161Z,23.24
2017-08-01T03:46:01.079Z,23.13
2017-08-01T03:46:41.961Z,23.08
2017-08-01T03:47:22.866Z,23.02
2017-08-01T03:48:03.779Z,22.99
2017-08-01T03:48:44.683Z,22.99
2017-08-01T03:49:25.580Z,23.05
2017-08-01T03:50:06.473Z,23.17
2017-08-01T03:50:47.372Z,23.06
2017-08-01T03:51:28.271Z,23.13
2017-08-01T03:52:09.161Z,23.32
2017-08-01T03:52:50.062Z,23.23
2017-08-01T03:53:30.958Z,23.25
2017-08-01T03:54:11.854Z,23.32
2017-08-01T03:54:52.757Z,23.39
2017-08-01T03:55:33.633Z,23.41
2017-08-01T03:56:14.530Z,23.47
2017-08-01T03:56:55.440Z,23.32
2017-08-01T03:57:36.325Z,23.24
2017-08-01T03:58:17.238Z,23.27
2017-08-01T03:58:58.149Z,23.08
2017-08-01T03:59:39.058Z,23.18
2017-08-01T04:00:19.956Z,23.44
2017-08-01T04:01:00.884Z,23.5
2017-08-01T04:01:41.777Z,23.54
2017-08-01T04:02:22.684Z,23.48
2017-08-01T04:03:03.578Z,23.44
2017-08-01T04:03:44.478Z,23.25
2017-08-01T04:04:25.377Z,23.2
2017-08-01T04:05:06.269Z,23.05
2017-08-01T04:05:47.175Z,22.99
2017-08-01T04:06:28.069Z,22.81
2017-08-01T04:07:08.960Z,22.75
2017-08-01T04:07:49.864Z,22.7
2017-08-01T04:08:30.764Z,22.6
2017-08-01T04:09:11.653Z,22.57
2017-08-01T04:09:52.552Z,22.68
2017-08-01T04:10:33.443Z,22.63
2017-08-01T04:11:14.348Z,22.8
2017-08-01T04:11:55.266Z,22.84
2017-08-01T04:12:36.138Z,22.85
2017-08-01T04:13:17.042Z,22.8
2017-08-01T04:13:57.927Z,22.88
2017-08-01T04:14:38.821Z,22.99
2017-08-01T04:15:19.719Z,23.02
2017-08-01T04:16:00.609Z,23.17
2017-08-01T04:16:41.515Z,23.21
2017-08-01T04:17:22.421Z,23.2
2017-08-01T04:18:03.318Z,23.2
2017-08-01T04:18:44.219Z,23.36
2017-08-01T04:19:25.128Z,23.21
2017-08-01T04:20:06.002Z,23.25
2017-08-01T04:20:46.903Z,23.25
2017-08-01T04:21:27.802Z,23.25
2017-08-01T04:22:08.730Z,23.31
2017-08-01T04:22:49.621Z,23.28
2017-08-01T04:23:30.557Z,23.27
2017-08-01T04:24:11.462Z,23.37
2017-08-01T04:24:52.355Z,23.32
2017-08-01T04:25:33.260Z,23.27
2017-08-01T04:26:14.169Z,23.32
2017-08-01T04:26:55.060Z,23.25
2017-08-01T04:27:35.967Z,23.31
2017-08-01T04:28:16.888Z,23.21
2017-08-01T04:28:57.784Z,23.03
2017-08-01T04:29:38.669Z,23.15
2017-08-01T04:30:19.564Z,23.27
2017-08-01T04:31:00.467Z,23.03
2017-08-01T04:31:41.366Z,22.99
2017-08-01T04:32:22.273Z,23.08
2017-08-01T04:33:03.175Z,23.27
2017-08-01T04:33:44.047Z,23.48
2017-08-01T04:34:24.948Z,23.43
2017-08-01T04:35:05.844Z,23.59
2017-08-01T04:35:46.739Z,23.68
2017-08-01T04:36:27.645Z,23.68
2017-08-01T04:37:08.528Z,23.51
2017-08-01T04:37:49.416Z,23.62
2017-08-01T04:38:30.319Z,23.76
2017-08-01T04:39:11.209Z,23.66
2017-08-01T04:39:52.105Z,23.47
2017-08-01T04:40:33.003Z,23.24
2017-08-01T04:41:13.891Z,23.28
2017-08-01T04:41:54.795Z,23.32
2017-08-01T04:42:35.692Z,23.46
2017-08-01T04:43:16.588Z,23.51
2017-08-01T04:43:57.490Z,23.58
2017-08-01T04:44:38.375Z,23.43
2017-08-01T04:45:19.268Z,23.46
2017-08-01T04:46:00.167Z,23.31
2017-08-01T04:46:41.057Z,23.4
2017-08-01T04:47:21.974Z,23.54
2017-08-01T04:48:02.867Z,23.39
2017-08-01T04:48:43.761Z,23.51
2017-08-01T04:49:24.661Z,23.68
2017-08-01T04:50:05.546Z,23.5
2017-08-01T04:50:46.441Z,23.23
2017-08-01T04:51:27.338Z,23.4
2017-08-01T04:52:08.220Z,23.44
2017-08-01T04:52:49.126Z,23.43
2017-08-01T04:53:30.020Z,23.48
2017-08-01T04:54:10.913Z,23.54
2017-08-01T04:54:51.830Z,23.54
2017-08-01T04:55:32.710Z,23.59
2017-08-01T04:56:13.602Z,23.62
2017-08-01T04:56:54.507Z,23.55
2017-08-01T04:57:35.399Z,23.61
2017-08-01T04:58:16.303Z,23.58
2017-08-01T04:58:57.204Z,23.54
2017-08-01T04:59:38.086Z,23.54
2017-08-01T05:00:18.985Z,23.54
2017-08-01T05:00:59.877Z,23.74
2017-08-01T05:01:40.772Z,23.66
2017-08-01T05:02:21.670Z,23.8
2017-08-01T05:03:02.559Z,23.59
2017-08-01T05:03:43.465Z,23.62
2017-08-01T05:04:24.355Z,23.54
2017-08-01T05:05:05.244Z,23.58
2017-08-01T05:05:46.144Z,23.62
2017-08-01T05:06:27.070Z,23.51
2017-08-01T05:07:07.966Z,23.31
2017-08-01T05:07:48.863Z,23.17
2017-08-01T05:08:29.755Z,23.02
2017-08-01T05:09:10.655Z,22.7
2017-08-01T05:09:51.554Z,22.96
2017-08-01T05:10:32.454Z,22.75
2017-08-01T05:11:13.357Z,22.78
2017-08-01T05:11:54.245Z,22.55
2017-08-01T05:12:35.138Z,22.57
2017-08-01T05:13:16.034Z,22.78
2017-08-01T05:13:56.929Z,22.53
2017-08-01T05:14:37.834Z,22.5
2017-08-01T05:15:18.721Z,22.39
2017-08-01T05:15:59.619Z,22.3
2017-08-01T05:16:40.506Z,22.32
2017-08-01T05:17:21.394Z,22.32
2017-08-01T05:18:02.299Z,22.35
2017-08-01T05:18:43.194Z,22.25
2017-08-01T05:19:24.086Z,22.32
2017-08-01T05:20:04.980Z,22.32
2017-08-01T05:20:45.873Z,22.48
2017-08-01T05:21:26.777Z,22.38
2017-08-01T05:22:07.665Z,22.59
2017-08-01T05:22:48.557Z,22.6
2017-08-01T05:23:29.451Z,22.43
2017-08-01T05:24:10.352Z,22.54
2017-08-01T05:24:51.242Z,22.59
2017-08-01T05:25:32.142Z,22.6
2017-08-01T05:26:13.044Z,22.65
2017-08-01T05:26:53.947Z,22.66
2017-08-01T05:27:34.845Z,22.73
2017-08-01T05:28:15.728Z,22.66
2017-08-01T05:28:56.622Z,22.8
2017-08-01T05:29:37.533Z,22.73
2017-08-01T05:30:18.415Z,22.9
2017-08-01T05:30:59.313Z,22.99
2017-08-01T05:31:40.206Z,22.96
2017-08-01T05:32:21.105Z,22.94
2017-08-01T05:33:01.998Z,22.96
2017-08-01T05:33:42.890Z,22.93
2017-08-01T05:34:23.791Z,22.85
2017-08-01T05:35:04.689Z,22.8
2017-08-01T05:35:45.578Z,22.83
2017-08-01T05:36:26.507Z,22.8
2017-08-01T05:37:07.390Z,22.76
2017-08-01T05:37:48.300Z,22.63
2017-08-01T05:38:29.203Z,22.7
2017-08-01T05:39:10.084Z,22.65
2017-08-01T05:39:50.979Z,22.78
2017-08-01T05:40:31.881Z,22.69
2017-08-01T05:41:12.767Z,22.68
2017-08-01T05:41:53.637Z,22.69
2017-08-01T05:42:34.540Z,22.73
2017-08-01T05:43:15.440Z,23
2017-08-01T05:43:56.332Z,22.85
2017-08-01T05:44:37.230Z,22.8
2017-08-01T05:45:18.100Z,22.65
2017-08-01T05:45:59.003Z,22.44
2017-08-01T05:46:39.889Z,22.54
2017-08-01T05:47:20.771Z,22.53
2017-08-01T05:48:01.663Z,22.53
2017-08-01T05:48:42.565Z,22.41
2017-08-01T05:49:23.470Z,22.41
2017-08-01T05:50:04.362Z,22.38
2017-08-01T05:50:45.262Z,22.57
2017-08-01T05:51:26.147Z,22.41
2017-08-01T05:52:07.035Z,22.13
2017-08-01T05:52:47.963Z,22.25
2017-08-01T05:53:28.878Z,22.3
2017-08-01T05:54:09.757Z,22.32
2017-08-01T05:54:50.640Z,22.53
2017-08-01T05:55:31.549Z,22.66
2017-08-01T05:56:12.439Z,22.57
2017-08-01T05:56:53.319Z,22.66
2017-08-01T05:57:34.209Z,22.68
2017-08-01T05:58:15.111Z,22.8
2017-08-01T05:58:55.995Z,22.66
2017-08-01T06:00:29.369Z,22.28
2017-08-01T06:01:10.266Z,22.38
2017-08-01T06:01:51.152Z,22.53
2017-08-01T06:02:32.052Z,22.43
2017-08-01T06:03:12.941Z,22.44
2017-08-01T06:03:53.830Z,22.26
2017-08-01T06:04:34.726Z,22.23
2017-08-01T06:05:15.623Z,22.32
2017-08-01T06:05:56.521Z,22.22
2017-08-01T06:06:37.412Z,22.2
2017-08-01T06:07:18.309Z,22.2
2017-08-01T06:07:59.202Z,22.11
2017-08-01T06:08:40.118Z,22.02
2017-08-01T06:09:21.019Z,21.93
2017-08-01T06:10:01.905Z,21.82
2017-08-01T06:10:42.830Z,21.77
2017-08-01T06:11:23.722Z,21.55
2017-08-01T06:12:04.627Z,21.48
2017-08-01T06:12:45.528Z,21.43
2017-08-01T06:13:26.425Z,21.22
2017-08-01T06:14:07.325Z,21.17
2017-08-01T06:14:48.254Z,21.09
2017-08-01T06:16:16.427Z,20.87
2017-08-01T06:17:44.574Z,20.9
2017-08-01T06:18:25.432Z,20.69
2017-08-01T06:19:06.322Z,20.78
2017-08-01T06:19:47.216Z,20.63
2017-08-01T06:20:28.090Z,20.82
2017-08-01T06:21:08.973Z,20.67
2017-08-01T06:21:49.847Z,20.63
2017-08-01T06:22:30.764Z,20.7
2017-08-01T06:23:11.621Z,20.81
2017-08-01T06:23:52.527Z,20.66
2017-08-01T06:24:33.413Z,20.65
2017-08-01T06:25:14.275Z,20.58
2017-08-01T06:25:55.167Z,20.44
2017-08-01T06:26:36.032Z,20.52
2017-08-01T06:27:16.915Z,20.39
2017-08-01T06:27:57.771Z,20.48
2017-08-01T06:28:38.638Z,20.43
2017-08-01T06:29:19.508Z,20.48
2017-08-01T06:30:00.369Z,20.48
2017-08-01T06:30:41.243Z,20.47
2017-08-01T06:31:22.132Z,20.5
2017-08-01T06:32:03.033Z,20.34
2017-08-01T06:32:43.885Z,20.4
2017-08-01T06:33:24.756Z,20.36
2017-08-01T06:34:05.615Z,20.28
2017-08-01T06:34:46.493Z,20.31
2017-08-01T06:35:27.390Z,20.25
2017-08-01T06:36:08.281Z,20.19
2017-08-01T06:36:49.154Z,20.25
2017-08-01T06:37:30.020Z,20.16
2017-08-01T06:38:10.889Z,20.26
2017-08-01T06:38:51.779Z,20.25
2017-08-01T06:39:32.656Z,20.25
2017-08-01T06:40:13.521Z,20.13
2017-08-01T06:40:54.392Z,20.19
2017-08-01T06:41:35.254Z,20.28
2017-08-01T06:42:16.137Z,20.18
2017-08-01T06:42:57.037Z,20.28
2017-08-01T06:43:37.918Z,20.24
2017-08-01T06:44:18.774Z,20.36
2017-08-01T06:44:59.638Z,20.34
2017-08-01T06:45:40.526Z,20.39
2017-08-01T06:46:21.398Z,20.4
2017-08-01T06:47:02.286Z,20.26
2017-08-01T06:47:43.153Z,20.39
2017-08-01T06:48:24.016Z,20.4
2017-08-01T06:49:04.879Z,20.43
2017-08-01T06:49:45.751Z,20.41
2017-08-01T06:50:26.636Z,20.51
2017-08-01T06:51:07.536Z,20.55
2017-08-01T06:51:48.414Z,20.67
2017-08-01T06:52:29.311Z,20.72
2017-08-01T06:53:10.207Z,20.72
2017-08-01T06:53:51.077Z,20.77
2017-08-01T06:54:31.947Z,20.85
2017-08-01T06:55:12.852Z,20.99
2017-08-01T06:55:53.732Z,20.96
2017-08-01T06:56:34.603Z,21.03
2017-08-01T06:57:15.467Z,21.05
2017-08-01T06:57:56.350Z,21.06
2017-08-01T06:59:34.791Z,21.21
2017-08-01T07:00:15.673Z,21.27
2017-08-01T07:00:56.558Z,21.29
2017-08-01T07:01:37.435Z,21.33
2017-08-01T07:02:18.299Z,21.55
2017-08-01T07:02:59.179Z,21.67
2017-08-01T07:03:40.065Z,21.92
2017-08-01T07:04:20.957Z,22.17
2017-08-01T07:05:01.849Z,22.3
2017-08-01T07:05:42.737Z,22.45
2017-08-01T07:06:23.641Z,22.59
2017-08-01T07:07:04.508Z,22.63
2017-08-01T07:07:45.457Z,22.66
2017-08-01T07:08:26.323Z,22.83
2017-08-01T07:09:07.209Z,22.96
2017-08-01T07:09:48.099Z,23.06
2017-08-01T07:10:28.984Z,23.2
2017-08-01T07:11:09.851Z,23.41
2017-08-01T07:11:50.729Z,23.69
2017-08-01T07:12:31.634Z,23.93
2017-08-01T07:13:12.507Z,24.08
2017-08-01T07:13:53.374Z,24.05
2017-08-01T07:14:34.254Z,24.2
2017-08-01T07:15:15.140Z,24.42
2017-08-01T07:15:56.016Z,24.45
2017-08-01T07:16:36.885Z,24.5
2017-08-01T07:17:17.764Z,24.74
2017-08-01T07:17:58.622Z,24.8
2017-08-01T07:18:39.512Z,25.17
2017-08-01T07:19:20.427Z,25.44
2017-08-01T07:20:01.300Z,25.5
2017-08-01T07:20:42.192Z,25.4
2017-08-01T07:21:23.109Z,25.53
2017-08-01T07:22:04.010Z,25.77
2017-08-01T07:22:44.909Z,25.73
2017-08-01T07:23:25.785Z,25.96
2017-08-01T07:24:59.078Z,25.95
2017-08-01T07:25:39.950Z,25.83
2017-08-01T07:26:20.826Z,25.88
2017-08-01T07:27:01.725Z,25.91
2017-08-01T07:27:42.589Z,25.98
2017-08-01T07:28:23.463Z,25.9
2017-08-01T07:29:04.343Z,26.03
2017-08-01T07:29:45.217Z,25.91
2017-08-01T07:30:26.120Z,25.91
2017-08-01T07:31:07.004Z,25.91
2017-08-01T07:31:47.878Z,25.83
2017-08-01T07:32:28.769Z,25.96
2017-08-01T07:33:09.653Z,26.15
2017-08-01T07:33:50.528Z,26.51
2017-08-01T07:34:31.396Z,26.58
2017-08-01T07:35:12.265Z,26.89
2017-08-01T07:35:53.143Z,27.1
2017-08-01T07:36:34.038Z,27.42
2017-08-01T07:37:14.908Z,27.78
2017-08-01T07:38:53.381Z,28.44
2017-08-01T07:39:34.282Z,28.64
2017-08-01T07:40:15.172Z,28.84
2017-08-01T07:40:56.052Z,29.04
2017-08-01T07:41:36.982Z,29.12
2017-08-01T07:42:17.856Z,29.13
2017-08-01T07:42:58.765Z,29.19
2017-08-01T07:43:39.640Z,29.1
2017-08-01T07:44:20.511Z,29.14
2017-08-01T07:45:01.427Z,29.12
2017-08-01T07:45:42.307Z,29.13
2017-08-01T07:46:23.175Z,29.19
2017-08-01T07:47:04.069Z,29.23
2017-08-01T07:47:44.981Z,29.24
2017-08-01T07:48:25.865Z,29.34
2017-08-01T07:49:06.754Z,29.49
2017-08-01T07:49:47.645Z,29.51
2017-08-01T07:50:28.531Z,29.35
2017-08-01T07:51:09.406Z,29.19
2017-08-01T07:51:50.288Z,28.88
2017-08-01T07:52:31.176Z,28.66
2017-08-01T07:53:12.059Z,28.62
2017-08-01T07:53:52.948Z,28.66
2017-08-01T07:54:33.847Z,28.66
2017-08-01T07:55:14.741Z,28.84
2017-08-01T07:55:55.644Z,28.86
2017-08-01T07:56:36.534Z,29.02
2017-08-01T07:57:17.472Z,28.67
2017-08-01T07:57:58.388Z,28.42
2017-08-01T07:58:39.269Z,28.01
2017-08-01T07:59:20.171Z,27.71
2017-08-01T08:00:01.060Z,27.68
2017-08-01T08:00:41.961Z,27.71
2017-08-01T08:01:22.848Z,27.68
2017-08-01T08:02:03.730Z,27.36
2017-08-01T08:02:44.629Z,27.2
2017-08-01T08:03:25.530Z,27.07
2017-08-01T08:04:06.429Z,26.75
2017-08-01T08:04:47.338Z,26.4
2017-08-01T08:05:28.203Z,26.28
2017-08-01T08:06:09.082Z,26.03
2017-08-01T08:06:49.949Z,25.8
2017-08-01T08:07:30.833Z,25.51
2017-08-01T08:08:11.731Z,25.51
2017-08-01T08:08:52.612Z,25.38
2017-08-01T08:09:33.487Z,25.25
2017-08-01T08:10:14.390Z,25.21
2017-08-01T08:11:47.683Z,24.88
2017-08-01T08:12:28.558Z,25.01
2017-08-01T08:13:09.446Z,25.01
2017-08-01T08:13:50.332Z,25.06
2017-08-01T08:14:31.229Z,25.08
2017-08-01T08:15:12.108Z,25.21
2017-08-01T08:15:52.978Z,25.4
2017-08-01T08:16:33.884Z,25.4
2017-08-01T08:17:14.769Z,25.53
2017-08-01T08:17:55.654Z,25.87
2017-08-01T08:18:36.552Z,25.88
2017-08-01T08:19:17.434Z,25.95
2017-08-01T08:19:58.324Z,25.99
2017-08-01T08:20:39.199Z,25.95
2017-08-01T08:21:20.076Z,26
2017-08-01T08:22:00.968Z,26.23
2017-08-01T08:22:41.836Z,26.47
2017-08-01T08:23:22.725Z,26.81
2017-08-01T08:24:03.609Z,27.07
2017-08-01T08:24:44.492Z,27.39
2017-08-01T08:25:25.369Z,27.58
2017-08-01T08:26:06.246Z,27.74
2017-08-01T08:26:47.141Z,27.98
2017-08-01T08:27:28.035Z,28.37
2017-08-01T08:28:08.914Z,28.49
2017-08-01T08:28:49.794Z,28.64
2017-08-01T08:29:30.666Z,28.79
2017-08-01T08:30:11.574Z,28.89
2017-08-01T08:30:52.465Z,29.12
2017-08-01T08:31:33.341Z,29.1
2017-08-01T08:32:14.241Z,29.29
2017-08-01T08:32:55.137Z,29.32
2017-08-01T08:33:36.024Z,29.42
2017-08-01T08:34:16.906Z,29.51
2017-08-01T08:34:57.800Z,29.22
2017-08-01T08:35:38.696Z,29.29
2017-08-01T08:36:19.608Z,29.27
2017-08-01T08:37:00.529Z,29.22
2017-08-01T08:37:41.419Z,29.2
2017-08-01T08:38:22.307Z,29.36
2017-08-01T08:39:03.186Z,29.39
2017-08-01T08:39:44.074Z,29.41
2017-08-01T08:40:24.964Z,29.39
2017-08-01T08:41:05.875Z,29.51
2017-08-01T08:41:46.786Z,29.68
2017-08-01T08:42:27.742Z,29.73
2017-08-01T08:43:08.654Z,29.76
2017-08-01T08:43:49.556Z,29.79
2017-08-01T08:44:30.444Z,30.12
2017-08-01T08:45:11.352Z,30.48
2017-08-01T08:45:52.240Z,30.66
2017-08-01T08:46:33.141Z,30.73
2017-08-01T08:47:14.060Z,30.84
2017-08-01T08:47:54.933Z,31.12
2017-08-01T08:48:35.830Z,31.21
2017-08-01T08:49:16.734Z,31.17
2017-08-01T08:49:57.632Z,31.36
2017-08-01T08:50:38.546Z,31.36
2017-08-01T08:51:19.432Z,31.22
2017-08-01T08:52:00.325Z,31.27
2017-08-01T08:52:41.232Z,30.92
2017-08-01T08:53:22.123Z,30.81
2017-08-01T08:54:03.045Z,30.72
2017-08-01T08:54:43.941Z,30.35
2017-08-01T08:55:24.848Z,30.44
2017-08-01T08:56:05.778Z,30.48